الصفحة الرئيسية
METAR-TAF:

METAR-TAF

مطار :

ماليه, جزر المالديف

دائرة عرض: 04-12N, خط طول: 073-32E, ارتفاع: 2 متر

مراقبة الطقس الحالي

تاريخ ووقت الإصدار 52 دقيقة قبل الساعة 15:00UTC
ريح 4 عقدة من الجنوب
درجة الحرارة 30°درجة مئوية
الرطوبة 75%
ضغط 1009 hPa
الرؤية 10 كم أو أكثر
غيوم قليلة على ارتفاع 1800 قدم
غيوم مفككة على ارتفاع 28000 قدم

METAR: VRMM 221500Z 19004KT 9999 FEW018 BKN280 30/25 Q1009 NOSIG

زمن: 20:52 (15:52 UTC)

توقعات

تاريخ ووقت الإصدار 4ساعات و 52 دقيقة قبل الساعة 11:00UTC
التوقعات صالحة من22 الساعة 12 UTC إلى 23 الساعة 18 UTC
ريح 6 عقدة من الغرب/الجنوب الغربي
الرؤية 10 كم أو أكثر
غيوم قليلة على ارتفاع 1800 قدم, مزن ركامية عمودية.
غيوم مفككة على ارتفاع 11000 قدم
مؤقت
من 22 الساعة 12 UTC إلى 23 الساعة 18 UTC
الرؤية: 5000 متر
غيوم قليلة على ارتفاع 1700 قدم, مزنة ركامية.
زخات من الأمطار الخفيفة

TAF: VRMM 221100Z 2212/2318 24006KT 9999 FEW018TCU BKN110 TEMPO 2212/2318 5000 -SHRA FEW017CB

أرصاد الطقس والتوقعات من أكثر من 4000 مطار (تقارير الطقس للمطار METAR والتنبؤ بالطقس بالمطارTAF).

المحطات المتاحة هي النقط الصفراء والحمراء على الخريطة.

حرك المؤشر فوق النقطة لمعرفة اسم المحطة.

ثم انقر لمعرفة أرصاد وتوقعات الطقس.

لتغيير الخارطة: اضغط على الأزرار الخضراء مع رمز الصليب الأسود للتكبير. على الزر الأخضر مع شرطة للتصغير، أو على الأسهم الخضراء للخرائط المجاورة.


METAR-TAF: